sensor_id;sensor_type;location;lat;lon;timestamp;pressure;altitude;pressure_sealevel;temperature;humidity
52319;BME280;38258;51.148;14.068;2023-03-22T00:01:20;98050.75;;;8.33;100.00
52319;BME280;38258;51.148;14.068;2023-03-22T00:03:49;98035.91;;;8.35;100.00
52319;BME280;38258;51.148;14.068;2023-03-22T00:06:20;98047.16;;;8.37;100.00
52319;BME280;38258;51.148;14.068;2023-03-22T00:08:49;98045.34;;;8.41;100.00
52319;BME280;38258;51.148;14.068;2023-03-22T00:11:19;98041.84;;;8.42;100.00
52319;BME280;38258;51.148;14.068;2023-03-22T00:13:47;98049.72;;;8.40;100.00
52319;BME280;38258;51.148;14.068;2023-03-22T00:16:17;98046.34;;;8.35;100.00
52319;BME280;38258;51.148;14.068;2023-03-22T00:18:44;98047.09;;;8.40;100.00
52319;BME280;38258;51.148;14.068;2023-03-22T00:21:13;98048.94;;;8.37;100.00
52319;BME280;38258;51.148;14.068;2023-03-22T00:23:41;98042.84;;;8.36;100.00
52319;BME280;38258;51.148;14.068;2023-03-22T00:26:09;98021.19;;;8.34;100.00
52319;BME280;38258;51.148;14.068;2023-03-22T00:28:37;98039.19;;;8.43;100.00
52319;BME280;38258;51.148;14.068;2023-03-22T00:31:04;98036.59;;;8.43;100.00
52319;BME280;38258;51.148;14.068;2023-03-22T00:33:32;98040.16;;;8.39;100.00
52319;BME280;38258;51.148;14.068;2023-03-22T00:36:00;98035.91;;;8.35;100.00
52319;BME280;38258;51.148;14.068;2023-03-22T00:38:29;98030.50;;;8.43;100.00
52319;BME280;38258;51.148;14.068;2023-03-22T00:41:08;98032.22;;;8.44;100.00
52319;BME280;38258;51.148;14.068;2023-03-22T00:43:36;98021.06;;;8.39;100.00
52319;BME280;38258;51.148;14.068;2023-03-22T00:46:03;98015.03;;;8.37;100.00
52319;BME280;38258;51.148;14.068;2023-03-22T00:48:30;98018.28;;;8.46;100.00
52319;BME280;38258;51.148;14.068;2023-03-22T00:50:57;98015.84;;;8.40;100.00
52319;BME280;38258;51.148;14.068;2023-03-22T00:53:24;98011.47;;;8.39;100.00
52319;BME280;38258;51.148;14.068;2023-03-22T00:55:55;98003.56;;;8.44;100.00
52319;BME280;38258;51.148;14.068;2023-03-22T00:58:22;98003.66;;;8.39;100.00
52319;BME280;38258;51.148;14.068;2023-03-22T01:00:49;97999.53;;;8.32;100.00
52319;BME280;38258;51.148;14.068;2023-03-22T01:03:16;97994.22;;;8.35;100.00
52319;BME280;38258;51.148;14.068;2023-03-22T01:05:43;97993.41;;;8.33;100.00
52319;BME280;38258;51.148;14.068;2023-03-22T01:08:10;97999.53;;;8.32;100.00
52319;BME280;38258;51.148;14.068;2023-03-22T01:10:40;97995.22;;;8.31;100.00
52319;BME280;38258;51.148;14.068;2023-03-22T01:13:09;97994.94;;;8.42;100.00
52319;BME280;38258;51.148;14.068;2023-03-22T01:15:37;97989.06;;;8.33;100.00
52319;BME280;38258;51.148;14.068;2023-03-22T01:18:04;97986.50;;;8.32;100.00
52319;BME280;38258;51.148;14.068;2023-03-22T01:20:32;97971.16;;;8.19;100.00
52319;BME280;38258;51.148;14.068;2023-03-22T01:22:59;97995.19;;;8.32;100.00
52319;BME280;38258;51.148;14.068;2023-03-22T01:52:46;97900.84;;;7.11;100.00
52319;BME280;38258;51.148;14.068;2023-03-22T02:03:54;97778.63;;;6.32;100.00
52319;BME280;38258;51.148;14.068;2023-03-22T02:07:36;97882.88;;;7.00;100.00
52319;BME280;38258;51.148;14.068;2023-03-22T02:17:25;97979.13;;;6.98;100.00
52319;BME280;38258;51.148;14.068;2023-03-22T03:22:31;97938.78;;;6.33;100.00
52319;BME280;38258;51.148;14.068;2023-03-22T03:25:06;97947.31;;;6.40;100.00
52319;BME280;38258;51.148;14.068;2023-03-22T03:27:38;97944.84;;;6.33;100.00
52319;BME280;38258;51.148;14.068;2023-03-22T03:30:11;97943.06;;;6.35;100.00
52319;BME280;38258;51.148;14.068;2023-03-22T03:32:44;97943.81;;;6.42;100.00
52319;BME280;38258;51.148;14.068;2023-03-22T03:35:16;97948.41;;;6.28;100.00
52319;BME280;38258;51.148;14.068;2023-03-22T03:37:50;97948.56;;;6.20;100.00
52319;BME280;38258;51.148;14.068;2023-03-22T03:40:22;97945.75;;;6.32;100.00
52319;BME280;38258;51.148;14.068;2023-03-22T03:42:52;97948.22;;;6.37;100.00
52319;BME280;38258;51.148;14.068;2023-03-22T03:45:19;97954.44;;;6.30;100.00
52319;BME280;38258;51.148;14.068;2023-03-22T03:47:48;97952.06;;;6.17;100.00
52319;BME280;38258;51.148;14.068;2023-03-22T03:50:23;97949.53;;;6.13;100.00
52319;BME280;38258;51.148;14.068;2023-03-22T03:52:53;97936.53;;;6.13;100.00
52319;BME280;38258;51.148;14.068;2023-03-22T03:55:21;97957.38;;;6.11;100.00
52319;BME280;38258;51.148;14.068;2023-03-22T03:57:48;97949.56;;;6.11;100.00
52319;BME280;38258;51.148;14.068;2023-03-22T04:00:16;97949.44;;;6.17;100.00
52319;BME280;38258;51.148;14.068;2023-03-22T04:03:04;97937.50;;;6.07;100.00
52319;BME280;38258;51.148;14.068;2023-03-22T04:06:06;97932.28;;;6.10;100.00
52319;BME280;38258;51.148;14.068;2023-03-22T04:08:37;97941.78;;;6.10;100.00
52319;BME280;38258;51.148;14.068;2023-03-22T04:11:06;97941.84;;;6.06;100.00
52319;BME280;38258;51.148;14.068;2023-03-22T04:13:34;97929.09;;;5.91;100.00
52319;BME280;38258;51.148;14.068;2023-03-22T04:16:05;97937.66;;;5.98;100.00
52319;BME280;38258;51.148;14.068;2023-03-22T04:18:35;97949.06;;;5.89;100.00
52319;BME280;38258;51.148;14.068;2023-03-22T04:21:06;97940.53;;;5.80;100.00
52319;BME280;38258;51.148;14.068;2023-03-22T04:23:44;97931.84;;;5.83;100.00
52319;BME280;38258;51.148;14.068;2023-03-22T04:26:11;97936.22;;;5.79;100.00
52319;BME280;38258;51.148;14.068;2023-03-22T04:28:52;97946.47;;;5.86;100.00
52319;BME280;38258;51.148;14.068;2023-03-22T04:31:20;97941.34;;;5.83;100.00
52319;BME280;38258;51.148;14.068;2023-03-22T04:33:51;97942.50;;;5.64;100.00
52319;BME280;38258;51.148;14.068;2023-03-22T04:36:44;97941.72;;;5.59;100.00
52319;BME280;38258;51.148;14.068;2023-03-22T04:39:19;97940.94;;;5.54;100.00
52319;BME280;38258;51.148;14.068;2023-03-22T04:41:55;97939.13;;;5.61;100.00
52319;BME280;38258;51.148;14.068;2023-03-22T04:44:22;97933.81;;;5.65;100.00
52319;BME280;38258;51.148;14.068;2023-03-22T04:46:50;97947.66;;;5.66;100.00
52319;BME280;38258;51.148;14.068;2023-03-22T04:49:17;97941.66;;;5.62;100.00
52319;BME280;38258;51.148;14.068;2023-03-22T04:51:44;97936.41;;;5.67;100.00
52319;BME280;38258;51.148;14.068;2023-03-22T04:54:22;97937.16;;;5.74;100.00
52319;BME280;38258;51.148;14.068;2023-03-22T04:56:49;97937.41;;;5.58;100.00
52319;BME280;38258;51.148;14.068;2023-03-22T04:59:19;97930.59;;;5.51;100.00
52319;BME280;38258;51.148;14.068;2023-03-22T05:01:48;97937.59;;;5.47;100.00
52319;BME280;38258;51.148;14.068;2023-03-22T05:04:19;97940.25;;;5.43;100.00
52319;BME280;38258;51.148;14.068;2023-03-22T05:06:49;97945.38;;;5.44;100.00
52319;BME280;38258;51.148;14.068;2023-03-22T05:09:24;97942.78;;;5.46;100.00
52319;BME280;38258;51.148;14.068;2023-03-22T05:11:52;97940.25;;;5.41;100.00
52319;BME280;38258;51.148;14.068;2023-03-22T05:14:25;97947.84;;;5.54;100.00
52319;BME280;38258;51.148;14.068;2023-03-22T05:16:52;97945.13;;;5.63;100.00
52319;BME280;38258;51.148;14.068;2023-03-22T05:19:18;97939.25;;;5.50;100.00
52319;BME280;38258;51.148;14.068;2023-03-22T05:21:48;97936.28;;;5.73;100.00
52319;BME280;38258;51.148;14.068;2023-03-22T05:24:24;97947.41;;;5.83;100.00
52319;BME280;38258;51.148;14.068;2023-03-22T05:26:51;97934.50;;;5.78;100.00
52319;BME280;38258;51.148;14.068;2023-03-22T05:29:21;97943.00;;;5.87;100.00
52319;BME280;38258;51.148;14.068;2023-03-22T05:32:09;97932.47;;;5.96;100.00
52319;BME280;38258;51.148;14.068;2023-03-22T05:34:37;97928.19;;;5.93;100.00
52319;BME280;38258;51.148;14.068;2023-03-22T05:37:27;97932.50;;;5.94;100.00
52319;BME280;38258;51.148;14.068;2023-03-22T05:39:57;97941.78;;;6.10;100.00
52319;BME280;38258;51.148;14.068;2023-03-22T05:42:34;97950.31;;;6.18;100.00
52319;BME280;38258;51.148;14.068;2023-03-22T05:45:09;97951.81;;;6.31;100.00
52319;BME280;38258;51.148;14.068;2023-03-22T05:47:42;97956.66;;;6.50;100.00
52319;BME280;38258;51.148;14.068;2023-03-22T05:50:18;97949.53;;;6.61;100.00
52319;BME280;38258;51.148;14.068;2023-03-22T05:52:47;97947.06;;;6.54;100.00
52319;BME280;38258;51.148;14.068;2023-03-22T05:55:22;97951.78;;;6.78;100.00
52319;BME280;38258;51.148;14.068;2023-03-22T05:57:53;97942.00;;;6.91;100.00
52319;BME280;38258;51.148;14.068;2023-03-22T06:00:21;97938.00;;;7.17;100.00
52319;BME280;38258;51.148;14.068;2023-03-22T06:03:16;97927.78;;;7.08;100.00
52319;BME280;38258;51.148;14.068;2023-03-22T06:05:48;97934.25;;;7.29;100.00
52319;BME280;38258;51.148;14.068;2023-03-22T06:08:22;97945.16;;;7.45;100.00
52319;BME280;38258;51.148;14.068;2023-03-22T06:10:50;97940.91;;;7.41;100.00
52319;BME280;38258;51.148;14.068;2023-03-22T06:13:18;97942.50;;;7.48;100.00
52319;BME280;38258;51.148;14.068;2023-03-22T06:15:47;97937.88;;;7.60;100.00
52319;BME280;38258;51.148;14.068;2023-03-22T06:18:26;97939.47;;;7.66;100.00
52319;BME280;38258;51.148;14.068;2023-03-22T06:21:01;97936.13;;;7.62;100.00
52319;BME280;38258;51.148;14.068;2023-03-22T06:23:28;97936.56;;;7.80;100.00
52319;BME280;38258;51.148;14.068;2023-03-22T06:25:56;97929.59;;;7.80;100.00
52319;BME280;38258;51.148;14.068;2023-03-22T06:28:23;97909.34;;;7.91;100.00
52319;BME280;38258;51.148;14.068;2023-03-22T06:30:54;97908.66;;;7.85;100.00
52319;BME280;38258;51.148;14.068;2023-03-22T06:33:44;97909.66;;;7.79;100.00
52319;BME280;38258;51.148;14.068;2023-03-22T06:36:24;97928.47;;;7.90;100.00
52319;BME280;38258;51.148;14.068;2023-03-22T06:39:07;97926.97;;;7.82;100.00
52319;BME280;38258;51.148;14.068;2023-03-22T06:41:35;97917.66;;;8.06;100.00
52319;BME280;38258;51.148;14.068;2023-03-22T06:44:02;97920.66;;;8.25;100.00
52319;BME280;38258;51.148;14.068;2023-03-22T06:46:40;97927.09;;;8.10;100.00
52319;BME280;38258;51.148;14.068;2023-03-22T06:49:15;97918.44;;;8.11;100.00
52319;BME280;38258;51.148;14.068;2023-03-22T06:51:46;97924.41;;;8.48;100.00
52319;BME280;38258;51.148;14.068;2023-03-22T06:54:13;97934.38;;;8.32;100.00
52319;BME280;38258;51.148;14.068;2023-03-22T06:56:42;97936.53;;;8.49;100.00
52319;BME280;38258;51.148;14.068;2023-03-22T06:59:09;97940.47;;;8.66;100.00
52319;BME280;38258;51.148;14.068;2023-03-22T07:01:45;97940.00;;;8.83;100.00
52319;BME280;38258;51.148;14.068;2023-03-22T07:04:12;97920.66;;;8.90;100.00
52319;BME280;38258;51.148;14.068;2023-03-22T07:06:41;97935.69;;;9.12;100.00
52319;BME280;38258;51.148;14.068;2023-03-22T07:09:08;97933.25;;;9.05;100.00
52319;BME280;38258;51.148;14.068;2023-03-22T07:11:36;97933.75;;;9.18;100.00
52319;BME280;38258;51.148;14.068;2023-03-22T07:14:04;97933.13;;;9.10;100.00
52319;BME280;38258;51.148;14.068;2023-03-22T07:17:03;97937.53;;;9.08;100.00
52319;BME280;38258;51.148;14.068;2023-03-22T07:19:30;97926.75;;;9.19;100.00
52319;BME280;38258;51.148;14.068;2023-03-22T07:22:02;97924.84;;;9.24;100.00
52319;BME280;38258;51.148;14.068;2023-03-22T07:27:05;97907.00;;;9.39;100.00
52319;BME280;38258;51.148;14.068;2023-03-22T07:29:33;97925.44;;;9.62;100.00
52319;BME280;38258;51.148;14.068;2023-03-22T07:32:01;97933.38;;;9.59;100.00
52319;BME280;38258;51.148;14.068;2023-03-22T07:34:39;97934.31;;;9.57;100.00
52319;BME280;38258;51.148;14.068;2023-03-22T07:37:13;97927.28;;;9.59;100.00
52319;BME280;38258;51.148;14.068;2023-03-22T07:39:40;97930.00;;;9.83;100.00
52319;BME280;38258;51.148;14.068;2023-03-22T07:42:07;97927.66;;;9.75;100.00
52319;BME280;38258;51.148;14.068;2023-03-22T07:44:54;97924.09;;;9.78;100.00
52319;BME280;38258;51.148;14.068;2023-03-22T07:47:44;97920.75;;;9.99;100.00
52319;BME280;38258;51.148;14.068;2023-03-22T07:50:17;97910.84;;;10.09;100.00
52319;BME280;38258;51.148;14.068;2023-03-22T07:52:47;97897.78;;;10.35;100.00
52319;BME280;38258;51.148;14.068;2023-03-22T07:55:14;97914.59;;;10.78;100.00
52319;BME280;38258;51.148;14.068;2023-03-22T07:57:41;97906.09;;;10.71;100.00
52319;BME280;38258;51.148;14.068;2023-03-22T08:00:11;97924.41;;;10.71;100.00
52319;BME280;38258;51.148;14.068;2023-03-22T08:02:45;97922.63;;;10.48;100.00
52319;BME280;38258;51.148;14.068;2023-03-22T08:05:32;97915.59;;;11.22;100.00
52319;BME280;38258;51.148;14.068;2023-03-22T08:08:01;97904.03;;;11.50;100.00
52319;BME280;38258;51.148;14.068;2023-03-22T08:10:27;97898.56;;;11.54;100.00
52319;BME280;38258;51.148;14.068;2023-03-22T08:12:56;97912.78;;;11.49;100.00
52319;BME280;38258;51.148;14.068;2023-03-22T08:15:26;97918.75;;;11.52;100.00
52319;BME280;38258;51.148;14.068;2023-03-22T08:17:54;97909.91;;;11.55;100.00
52319;BME280;38258;51.148;14.068;2023-03-22T08:20:38;97913.00;;;11.87;100.00
52319;BME280;38258;51.148;14.068;2023-03-22T08:23:09;97902.09;;;11.76;100.00
52319;BME280;38258;51.148;14.068;2023-03-22T08:26:06;97914.75;;;12.29;100.00
52319;BME280;38258;51.148;14.068;2023-03-22T08:28:33;97882.38;;;12.30;100.00
52319;BME280;38258;51.148;14.068;2023-03-22T08:31:08;97914.41;;;12.58;100.00
52319;BME280;38258;51.148;14.068;2023-03-22T08:33:35;97909.38;;;12.33;100.00
52319;BME280;38258;51.148;14.068;2023-03-22T08:36:05;97921.16;;;12.43;100.00
52319;BME280;38258;51.148;14.068;2023-03-22T08:38:39;97907.50;;;12.15;100.00
52319;BME280;38258;51.148;14.068;2023-03-22T08:41:06;97923.28;;;12.35;100.00
52319;BME280;38258;51.148;14.068;2023-03-22T08:43:33;97930.94;;;12.19;100.00
52319;BME280;38258;51.148;14.068;2023-03-22T08:46:02;97915.34;;;12.36;100.00
52319;BME280;38258;51.148;14.068;2023-03-22T08:48:29;97922.03;;;12.43;100.00
52319;BME280;38258;51.148;14.068;2023-03-22T08:51:06;97923.16;;;12.38;100.00
52319;BME280;38258;51.148;14.068;2023-03-22T08:53:48;97916.66;;;12.05;100.00
52319;BME280;38258;51.148;14.068;2023-03-22T08:56:35;97920.91;;;12.49;100.00
52319;BME280;38258;51.148;14.068;2023-03-22T08:59:16;97924.31;;;12.91;100.00
52319;BME280;38258;51.148;14.068;2023-03-22T09:01:59;97901.31;;;12.37;100.00
52319;BME280;38258;51.148;14.068;2023-03-22T09:04:26;97908.72;;;12.48;100.00
52319;BME280;38258;51.148;14.068;2023-03-22T09:06:53;97922.75;;;12.26;100.00
52319;BME280;38258;51.148;14.068;2023-03-22T09:09:20;97908.94;;;12.43;100.00
52319;BME280;38258;51.148;14.068;2023-03-22T09:11:50;97913.09;;;12.48;100.00
52319;BME280;38258;51.148;14.068;2023-03-22T09:14:17;97913.06;;;12.49;100.00
52319;BME280;38258;51.148;14.068;2023-03-22T09:16:46;97907.03;;;12.26;100.00
52319;BME280;38258;51.148;14.068;2023-03-22T09:19:15;97905.63;;;12.59;100.00
52319;BME280;38258;51.148;14.068;2023-03-22T09:21:42;97877.91;;;12.33;100.00
52319;BME280;38258;51.148;14.068;2023-03-22T09:24:17;97914.88;;;12.47;100.00
52319;BME280;38258;51.148;14.068;2023-03-22T09:26:49;97900.28;;;12.41;100.00
52319;BME280;38258;51.148;14.068;2023-03-22T09:29:17;97901.38;;;12.76;100.00
52319;BME280;38258;51.148;14.068;2023-03-22T09:31:45;97893.66;;;12.72;100.00
52319;BME280;38258;51.148;14.068;2023-03-22T09:34:21;97887.97;;;12.82;100.00
52319;BME280;38258;51.148;14.068;2023-03-22T09:36:48;97887.47;;;13.12;100.00
52319;BME280;38258;51.148;14.068;2023-03-22T09:39:19;97892.66;;;13.33;100.00
52319;BME280;38258;51.148;14.068;2023-03-22T09:41:53;97894.97;;;13.39;100.00
52319;BME280;38258;51.148;14.068;2023-03-22T09:44:26;97889.00;;;13.54;96.82
52319;BME280;38258;51.148;14.068;2023-03-22T09:46:56;97873.50;;;13.50;97.48
52319;BME280;38258;51.148;14.068;2023-03-22T09:49:29;97870.34;;;14.65;90.30
52319;BME280;38258;51.148;14.068;2023-03-22T09:51:58;97867.53;;;14.68;86.56
52319;BME280;38258;51.148;14.068;2023-03-22T09:54:31;97873.19;;;14.78;80.66
52319;BME280;38258;51.148;14.068;2023-03-22T09:57:01;97870.25;;;14.66;81.95
52319;BME280;38258;51.148;14.068;2023-03-22T09:59:36;97855.03;;;15.05;80.42
52319;BME280;38258;51.148;14.068;2023-03-22T10:02:26;97860.47;;;14.68;78.08
52319;BME280;38258;51.148;14.068;2023-03-22T10:05:08;97861.75;;;15.43;81.90
52319;BME280;38258;51.148;14.068;2023-03-22T10:07:48;97852.31;;;15.23;74.94
52319;BME280;38258;51.148;14.068;2023-03-22T10:10:20;97851.19;;;15.43;73.72
52319;BME280;38258;51.148;14.068;2023-03-22T10:12:51;97851.38;;;15.71;71.62
52319;BME280;38258;51.148;14.068;2023-03-22T10:15:23;97846.50;;;16.09;71.71
52319;BME280;38258;51.148;14.068;2023-03-22T10:17:54;97845.53;;;15.65;72.30
52319;BME280;38258;51.148;14.068;2023-03-22T10:20:29;97829.88;;;15.62;69.91
52319;BME280;38258;51.148;14.068;2023-03-22T10:22:58;97843.69;;;14.71;73.41
52319;BME280;38258;51.148;14.068;2023-03-22T10:25:32;97839.47;;;14.84;75.12
52319;BME280;38258;51.148;14.068;2023-03-22T10:28:00;97840.59;;;15.29;68.40
52319;BME280;38258;51.148;14.068;2023-03-22T10:30:32;97842.38;;;14.96;69.31
52319;BME280;38258;51.148;14.068;2023-03-22T10:33:11;97827.19;;;14.51;74.47
52319;BME280;38258;51.148;14.068;2023-03-22T10:35:41;97837.78;;;14.50;77.68
52319;BME280;38258;51.148;14.068;2023-03-22T10:38:17;97803.72;;;14.80;69.08
52319;BME280;38258;51.148;14.068;2023-03-22T10:40:45;97819.66;;;14.27;68.85
52319;BME280;38258;51.148;14.068;2023-03-22T10:43:19;97826.97;;;14.72;69.73
52319;BME280;38258;51.148;14.068;2023-03-22T10:45:47;97811.81;;;14.60;65.20
52319;BME280;38258;51.148;14.068;2023-03-22T10:48:24;97812.81;;;15.84;64.42
52319;BME280;38258;51.148;14.068;2023-03-22T10:50:53;97805.91;;;16.12;62.72
52319;BME280;38258;51.148;14.068;2023-03-22T10:53:27;97812.00;;;15.37;65.01
52319;BME280;38258;51.148;14.068;2023-03-22T10:55:55;97807.59;;;15.99;65.61
52319;BME280;38258;51.148;14.068;2023-03-22T10:58:27;97808.44;;;16.14;62.72
52319;BME280;38258;51.148;14.068;2023-03-22T11:00:56;97808.91;;;14.98;62.84
52319;BME280;38258;51.148;14.068;2023-03-22T11:03:27;97806.84;;;15.19;64.36
52319;BME280;38258;51.148;14.068;2023-03-22T11:06:01;97776.66;;;14.61;64.59
52319;BME280;38258;51.148;14.068;2023-03-22T11:08:28;97783.69;;;14.94;62.67
52319;BME280;38258;51.148;14.068;2023-03-22T11:11:04;97786.13;;;14.65;65.08
52319;BME280;38258;51.148;14.068;2023-03-22T11:13:32;97794.66;;;14.86;65.89
52319;BME280;38258;51.148;14.068;2023-03-22T11:16:01;97795.78;;;14.64;63.60
52319;BME280;38258;51.148;14.068;2023-03-22T11:18:29;97808.19;;;14.28;63.56
52319;BME280;38258;51.148;14.068;2023-03-22T11:21:03;97797.28;;;14.36;63.32
52319;BME280;38258;51.148;14.068;2023-03-22T11:23:32;97781.75;;;14.48;66.70
52319;BME280;38258;51.148;14.068;2023-03-22T11:26:05;97792.94;;;14.35;65.20
52319;BME280;38258;51.148;14.068;2023-03-22T11:28:33;97781.88;;;14.62;65.05
52319;BME280;38258;51.148;14.068;2023-03-22T11:31:04;97774.72;;;14.64;64.47
52319;BME280;38258;51.148;14.068;2023-03-22T11:33:32;97774.72;;;16.04;62.45
52319;BME280;38258;51.148;14.068;2023-03-22T11:36:02;97764.66;;;16.40;59.09
52319;BME280;38258;51.148;14.068;2023-03-22T11:38:35;97758.59;;;16.94;58.95
52319;BME280;38258;51.148;14.068;2023-03-22T11:41:07;97741.22;;;16.63;56.92
52319;BME280;38258;51.148;14.068;2023-03-22T11:43:36;97750.13;;;16.89;57.21
52319;BME280;38258;51.148;14.068;2023-03-22T11:46:06;97739.75;;;17.01;56.67
52319;BME280;38258;51.148;14.068;2023-03-22T11:48:34;97752.31;;;16.82;55.83
52319;BME280;38258;51.148;14.068;2023-03-22T11:51:09;97751.97;;;16.60;58.14
52319;BME280;38258;51.148;14.068;2023-03-22T11:53:38;97737.22;;;16.43;58.74
52319;BME280;38258;51.148;14.068;2023-03-22T11:56:09;97732.81;;;16.71;57.67
52319;BME280;38258;51.148;14.068;2023-03-22T11:58:49;97722.53;;;16.80;59.66
52319;BME280;38258;51.148;14.068;2023-03-22T12:04:13;97712.19;;;16.90;57.12
52319;BME280;38258;51.148;14.068;2023-03-22T12:06:42;97714.25;;;16.30;59.54
52319;BME280;38258;51.148;14.068;2023-03-22T12:09:17;97706.97;;;16.76;59.41
52319;BME280;38258;51.148;14.068;2023-03-22T12:11:49;97712.50;;;16.86;55.94
52319;BME280;38258;51.148;14.068;2023-03-22T12:14:21;97708.97;;;17.00;57.06
52319;BME280;38258;51.148;14.068;2023-03-22T12:16:50;97701.81;;;17.55;55.52
52319;BME280;38258;51.148;14.068;2023-03-22T12:19:34;97692.81;;;18.09;54.58
52319;BME280;38258;51.148;14.068;2023-03-22T12:22:10;97703.06;;;17.62;53.42
52319;BME280;38258;51.148;14.068;2023-03-22T12:24:38;97700.25;;;17.65;54.23
52319;BME280;38258;51.148;14.068;2023-03-22T12:27:12;97686.50;;;17.73;53.40
52319;BME280;38258;51.148;14.068;2023-03-22T12:29:43;97692.09;;;18.07;52.04
52319;BME280;38258;51.148;14.068;2023-03-22T12:32:16;97676.97;;;17.58;53.62
52319;BME280;38258;51.148;14.068;2023-03-22T12:34:47;97678.53;;;17.47;52.87
52319;BME280;38258;51.148;14.068;2023-03-22T12:37:20;97697.59;;;17.78;54.08
52319;BME280;38258;51.148;14.068;2023-03-22T12:39:51;97695.56;;;17.82;52.04
52319;BME280;38258;51.148;14.068;2023-03-22T12:42:22;97702.03;;;17.91;53.16
52319;BME280;38258;51.148;14.068;2023-03-22T12:44:56;97687.44;;;17.85;53.67
52319;BME280;38258;51.148;14.068;2023-03-22T12:47:27;97686.50;;;17.07;54.02
52319;BME280;38258;51.148;14.068;2023-03-22T12:49:59;97690.31;;;17.03;54.48
52319;BME280;38258;51.148;14.068;2023-03-22T12:52:36;97683.28;;;16.74;56.97
52319;BME280;38258;51.148;14.068;2023-03-22T12:55:05;97677.03;;;16.62;55.91
52319;BME280;38258;51.148;14.068;2023-03-22T12:57:35;97669.72;;;16.80;57.39
52319;BME280;38258;51.148;14.068;2023-03-22T13:00:06;97675.88;;;17.34;58.68
52319;BME280;38258;51.148;14.068;2023-03-22T13:02:38;97682.00;;;17.22;57.47
52319;BME280;38258;51.148;14.068;2023-03-22T13:05:06;97670.03;;;17.16;58.58
52319;BME280;38258;51.148;14.068;2023-03-22T13:07:49;97668.19;;;17.57;58.06
52319;BME280;38258;51.148;14.068;2023-03-22T13:13:47;97662.44;;;17.63;56.57
52319;BME280;38258;51.148;14.068;2023-03-22T13:16:20;97649.13;;;17.39;55.24
52319;BME280;38258;51.148;14.068;2023-03-22T13:18:57;97663.94;;;17.67;55.93
52319;BME280;38258;51.148;14.068;2023-03-22T13:21:25;97664.25;;;17.63;55.15
52319;BME280;38258;51.148;14.068;2023-03-22T13:24:00;97654.00;;;17.45;59.72
52319;BME280;38258;51.148;14.068;2023-03-22T13:26:32;97542.41;;;16.75;58.35
52319;BME280;38258;51.148;14.068;2023-03-22T13:29:08;97606.88;;;16.99;53.50
52319;BME280;38258;51.148;14.068;2023-03-22T13:31:40;97507.88;;;16.25;51.90
52319;BME280;38258;51.148;14.068;2023-03-22T13:34:13;97567.97;;;16.88;51.40
52319;BME280;38258;51.148;14.068;2023-03-22T13:36:48;97633.06;;;17.81;49.38
52319;BME280;38258;51.148;14.068;2023-03-22T13:39:16;97627.63;;;17.83;49.20
52319;BME280;38258;51.148;14.068;2023-03-22T13:41:46;97589.28;;;17.64;50.69
52319;BME280;38258;51.148;14.068;2023-03-22T13:44:26;97624.47;;;17.77;49.17
52319;BME280;38258;51.148;14.068;2023-03-22T13:46:57;97567.50;;;17.21;49.58
52319;BME280;38258;51.148;14.068;2023-03-22T13:49:43;97506.84;;;16.00;51.35
52319;BME280;38258;51.148;14.068;2023-03-22T13:52:25;97636.56;;;16.34;50.65
52319;BME280;38258;51.148;14.068;2023-03-22T13:54:56;97514.25;;;15.51;51.86
52319;BME280;38258;51.148;14.068;2023-03-22T13:57:47;97628.53;;;16.50;53.70
52319;BME280;38258;51.148;14.068;2023-03-22T14:03:19;97635.63;;;16.63;49.21
52319;BME280;38258;51.148;14.068;2023-03-22T14:05:54;97528.97;;;16.65;49.15
52319;BME280;38258;51.148;14.068;2023-03-22T14:08:26;97590.13;;;17.26;51.12
52319;BME280;38258;51.148;14.068;2023-03-22T14:11:01;97506.38;;;16.74;49.35
52319;BME280;38258;51.148;14.068;2023-03-22T14:13:34;97551.19;;;16.89;50.48
52319;BME280;38258;51.148;14.068;2023-03-22T14:16:06;97463.81;;;16.13;49.00
52319;BME280;38258;51.148;14.068;2023-03-22T14:18:35;97486.44;;;16.30;49.62
52319;BME280;38258;51.148;14.068;2023-03-22T14:21:06;97553.84;;;16.48;49.07
52319;BME280;38258;51.148;14.068;2023-03-22T14:23:37;97601.09;;;17.06;49.73
52319;BME280;38258;51.148;14.068;2023-03-22T14:26:13;97559.06;;;16.63;49.05
52319;BME280;38258;51.148;14.068;2023-03-22T14:28:40;97553.09;;;16.87;49.47
52319;BME280;38258;51.148;14.068;2023-03-22T14:31:13;97556.06;;;16.95;49.67
52319;BME280;38258;51.148;14.068;2023-03-22T14:33:42;97527.09;;;16.80;49.43
52319;BME280;38258;51.148;14.068;2023-03-22T14:36:14;97513.56;;;16.59;51.21
52319;BME280;38258;51.148;14.068;2023-03-22T14:38:44;97584.19;;;16.68;53.29
52319;BME280;38258;51.148;14.068;2023-03-22T14:41:14;97591.06;;;16.58;52.72
52319;BME280;38258;51.148;14.068;2023-03-22T14:43:43;97587.66;;;16.56;54.08
52319;BME280;38258;51.148;14.068;2023-03-22T14:46:16;97571.50;;;16.48;51.37
52319;BME280;38258;51.148;14.068;2023-03-22T14:48:49;97515.94;;;16.09;52.79
52319;BME280;38258;51.148;14.068;2023-03-22T14:51:20;97509.22;;;15.76;51.94
52319;BME280;38258;51.148;14.068;2023-03-22T14:53:49;97532.59;;;15.67;52.75
52319;BME280;38258;51.148;14.068;2023-03-22T14:56:20;97544.72;;;15.55;53.69
52319;BME280;38258;51.148;14.068;2023-03-22T14:58:50;97587.66;;;15.72;54.09
52319;BME280;38258;51.148;14.068;2023-03-22T15:01:22;97595.72;;;15.83;55.84
52319;BME280;38258;51.148;14.068;2023-03-22T15:03:53;97546.28;;;15.45;55.29
52319;BME280;38258;51.148;14.068;2023-03-22T15:06:22;97471.00;;;15.12;55.85
52319;BME280;38258;51.148;14.068;2023-03-22T15:08:49;97540.72;;;15.35;56.67
52319;BME280;38258;51.148;14.068;2023-03-22T15:11:18;97587.81;;;15.83;56.77